Terminal Aerodrome Forecast
Issued by NWS Wakefield, VA

Home | Current Version | Previous Version | Text Only | Print | Product List | Glossary On
Versions: 1 2 3 4 5 6 7 8 9 10 11 12 13
000
FTUS41 KAKQ 261120
TAFSBY
TAF
KSBY 261120Z 2612/2712 18004KT P6SM SKC
     FM261300 21006KT P6SM SCT250
     FM261600 21008KT P6SM SCT060
     FM270000 17003KT P6SM BKN250=

USA.gov is the U.S. government's official web portal to all federal, state and local government web resources and services.